»·PEaware :: N554B KTMK-KMFR

N554B :: KTMK-KMFR

FLIGHT INFORMATION

Flight Status: Arrived
Operator: Privately registered:
United States
More flights under this callsign
Pilot: Anonymous 37249 (37249)
Aircraft: CESSNA 550 CITATION 2/S2/BRAVO
(C550)
More flights by this aircraft type
Origin: KTMK Tillamook
United States
Destination: KMFR Rogue Valley Intl-Medford
United States
More flights between these airports :: More routes between these airports
Route: FETUJ3 CVO RBG
File this flight plan on PilotEdge
Remarks:
Altitude:
(Current/Filed)
19,000ft
Speed:
(Current/Filed)
350kts
Departed: 16-Jan-22 11:33 AM
Arrived: 16-Jan-22 12:19 PM
Distance/Time
Traveled:
187nm/0:46
Distance/Time
To Go:
Arrived

Flight Plot

Page will automatically refresh every two minutes.

Flight plan parsing failed; only flown route is shown


Map Options




Map Legend


Flown Route
Filed Route
Departure Airport
Arrival Airport
Navaid (VOR, NDB)
Fix

Horizontal Profiles

Position Reports

Time Latitude Longitude Heading Altitude Ground
Speed
16-Jan-22 11:04 45.418207 -123.818393 262 28ft 0kts
16-Jan-22 11:05 45.418207 -123.818393 262 28ft 0kts
16-Jan-22 11:06 45.418207 -123.818393 262 28ft 0kts
16-Jan-22 11:07 45.418207 -123.818393 262 28ft 0kts
16-Jan-22 11:08 45.418207 -123.818393 262 28ft 0kts
16-Jan-22 11:09 45.418207 -123.818393 262 28ft 0kts
16-Jan-22 11:10 45.418207 -123.818393 262 28ft 0kts
16-Jan-22 11:11 45.418207 -123.818393 262 28ft 0kts
16-Jan-22 11:12 45.418207 -123.818393 262 28ft 0kts
16-Jan-22 11:13 45.418207 -123.818393 262 28ft 0kts
16-Jan-22 11:13 45.418207 -123.818393 262 28ft 0kts
16-Jan-22 11:15 45.418207 -123.818393 262 28ft 0kts
16-Jan-22 11:16 45.418207 -123.818393 262 28ft 0kts
16-Jan-22 11:17 45.418207 -123.818393 262 28ft 0kts
16-Jan-22 11:17 45.418207 -123.818393 262 28ft 0kts
16-Jan-22 11:18 45.418207 -123.818393 262 28ft 0kts
16-Jan-22 11:20 45.418207 -123.818393 262 28ft 0kts
16-Jan-22 11:21 45.418207 -123.818393 262 28ft 0kts
16-Jan-22 11:21 45.418207 -123.818393 262 28ft 0kts
16-Jan-22 11:22 45.418207 -123.818393 262 28ft 0kts
16-Jan-22 11:23 45.418207 -123.818393 262 28ft 0kts
16-Jan-22 11:24 45.418207 -123.818393 262 28ft 0kts
16-Jan-22 11:25 45.418207 -123.818393 262 28ft 0kts
16-Jan-22 11:26 45.418207 -123.818393 262 28ft 0kts
16-Jan-22 11:27 45.418340 -123.817702 114 28ft 7kts
16-Jan-22 11:28 45.415413 -123.816439 143 28ft 13kts
16-Jan-22 11:29 45.412920 -123.812938 154 35ft 12kts
16-Jan-22 11:30 45.411721 -123.811720 98 38ft 0kts
16-Jan-22 11:31 45.411712 -123.811629 96 38ft 2kts
16-Jan-22 11:32 45.422809 -123.817933 335 412ft 138kts
16-Jan-22 11:33 45.469503 -123.847869 336 3078ft 232kts
16-Jan-22 11:34 45.533543 -123.888981 336 5908ft 256kts
16-Jan-22 11:35 45.599551 -123.931456 335 8820ft 265kts
16-Jan-22 11:36 45.641981 -124.011947 261 11561ft 300kts
16-Jan-22 11:37 45.572393 -124.047127 143 14254ft 331kts
16-Jan-22 11:38 45.531121 -123.925163 112 16549ft 355kts
16-Jan-22 11:39 45.455394 -123.845940 160 18747ft 346kts
16-Jan-22 11:40 45.363478 -123.792741 160 19274ft 360kts
16-Jan-22 11:41 45.271730 -123.739044 160 19275ft 356kts
16-Jan-22 11:42 45.180324 -123.685624 160 19275ft 356kts
16-Jan-22 11:43 45.089044 -123.632462 159 19278ft 355kts
16-Jan-22 11:44 44.997602 -123.579390 159 19294ft 355kts
16-Jan-22 11:45 44.906351 -123.526589 159 19303ft 355kts
16-Jan-22 11:46 44.815251 -123.474050 159 19303ft 355kts
16-Jan-22 11:47 44.723748 -123.421486 159 19303ft 355kts
16-Jan-22 11:48 44.632181 -123.369068 159 19303ft 355kts
16-Jan-22 11:49 44.540838 -123.316954 159 19301ft 355kts
16-Jan-22 11:50 44.445447 -123.295953 183 19297ft 350kts
16-Jan-22 11:51 44.348160 -123.300296 184 19281ft 353kts
16-Jan-22 11:52 44.249333 -123.304924 183 19273ft 356kts
16-Jan-22 11:53 44.151108 -123.309351 183 19273ft 352kts
16-Jan-22 11:54 44.053389 -123.313740 183 19273ft 351kts
16-Jan-22 11:55 43.955658 -123.318120 183 18486ft 355kts
16-Jan-22 11:56 43.858706 -123.322423 183 17483ft 344kts
16-Jan-22 11:57 43.764121 -123.326625 182 16479ft 339kts
16-Jan-22 11:58 43.670091 -123.330797 182 15475ft 338kts
16-Jan-22 11:59 43.576449 -123.334902 182 14484ft 333kts
16-Jan-22 12:00 43.484899 -123.338832 182 13477ft 327kts
16-Jan-22 12:01 43.393986 -123.342908 182 12473ft 326kts
16-Jan-22 12:02 43.304414 -123.347093 181 11475ft 319kts
16-Jan-22 12:03 43.215726 -123.350738 181 10988ft 326kts
16-Jan-22 12:04 43.131168 -123.321983 156 10985ft 316kts
16-Jan-22 12:05 43.050504 -123.273281 155 10988ft 314kts
16-Jan-22 12:06 42.970660 -123.225250 155 10990ft 312kts
16-Jan-22 12:07 42.891922 -123.176697 153 10472ft 309kts
16-Jan-22 12:08 42.818753 -123.128659 153 8956ft 266kts
16-Jan-22 12:09 42.755859 -123.087331 153 7453ft 243kts
16-Jan-22 12:10 42.699141 -123.050028 151 7083ft 212kts
16-Jan-22 12:11 42.646300 -123.016656 156 7088ft 209kts
16-Jan-22 12:12 42.587142 -122.984852 157 5473ft 235kts
16-Jan-22 12:13 42.532223 -122.955961 157 4303ft 179kts
16-Jan-22 12:14 42.494565 -122.936169 157 3593ft 127kts
16-Jan-22 12:15 42.459968 -122.917887 157 2896ft 139kts
16-Jan-22 12:16 42.424351 -122.899190 158 2151ft 127kts
16-Jan-22 12:17 42.393038 -122.882841 158 1503ft 112kts
16-Jan-22 12:18 42.373302 -122.873175 265 1314ft 9kts
16-Jan-22 12:19 42.373261 -122.873637 251 1313ft 0kts
16-Jan-22 12:20 42.372179 -122.873708 231 1313ft 11kts
16-Jan-22 12:21 42.372060 -122.877291 194 1311ft 6kts
16-Jan-22 12:22 42.371378 -122.877125 113 1311ft 0kts
16-Jan-22 12:23 42.371378 -122.877125 113 1311ft 0kts
16-Jan-22 12:24 42.371378 -122.877125 113 1311ft 0kts

Navigation Log

Ident Type
Flight plan parsing failed, navigation log unavailable